createdAt,value
2022-10-22T00:01:01.497Z,99650.00
2022-10-22T00:03:29.263Z,99645.00
2022-10-22T00:05:57.226Z,99654.00
2022-10-22T00:08:25.078Z,99660.00
2022-10-22T00:10:53.190Z,99664.00
2022-10-22T00:13:21.487Z,99670.00
2022-10-22T00:15:49.241Z,99666.00
2022-10-22T00:18:17.373Z,99663.00
2022-10-22T00:20:45.103Z,99669.00
2022-10-22T00:23:12.922Z,99670.00
2022-10-22T00:25:40.862Z,99676.00
2022-10-22T00:28:08.549Z,99684.00
2022-10-22T00:30:36.324Z,99682.00
2022-10-22T00:33:04.068Z,99682.00
2022-10-22T00:35:31.624Z,99691.00
2022-10-22T00:37:59.323Z,99677.00
2022-10-22T00:40:27.343Z,99665.00
2022-10-22T00:42:55.556Z,99662.00
2022-10-22T00:45:27.954Z,99665.00
2022-10-22T00:48:07.836Z,99662.00
2022-10-22T00:50:42.231Z,99658.00
2022-10-22T00:53:15.492Z,99669.00
2022-10-22T00:55:45.268Z,99666.00
2022-10-22T00:58:14.001Z,99661.00
2022-10-22T01:00:42.274Z,99660.00
2022-10-22T01:03:10.228Z,99661.00
2022-10-22T01:05:54.789Z,99666.00
2022-10-22T01:08:32.957Z,99659.00
2022-10-22T01:11:25.723Z,99656.00
2022-10-22T01:14:31.927Z,99648.00
2022-10-22T01:17:10.034Z,99651.00
2022-10-22T01:20:02.858Z,99657.00
2022-10-22T01:22:44.876Z,99673.00
2022-10-22T01:25:35.359Z,99680.00
2022-10-22T01:28:21.911Z,99676.00
2022-10-22T01:30:51.620Z,99667.00
2022-10-22T01:33:23.198Z,99651.00
2022-10-22T01:35:51.534Z,99651.00
2022-10-22T01:38:22.291Z,99649.00
2022-10-22T01:40:51.213Z,99651.00
2022-10-22T01:43:19.265Z,99651.00
2022-10-22T01:45:50.753Z,99664.00
2022-10-22T01:48:46.199Z,99666.00
2022-10-22T01:51:20.947Z,99668.00
2022-10-22T01:54:15.168Z,99659.00
2022-10-22T01:56:59.665Z,99652.00
2022-10-22T01:59:27.377Z,99649.00
2022-10-22T02:02:02.052Z,99656.00
2022-10-22T02:04:42.005Z,99644.00
2022-10-22T02:07:13.212Z,99638.00
2022-10-22T02:09:41.521Z,99636.00
2022-10-22T02:12:10.059Z,99638.00
2022-10-22T02:14:40.341Z,99638.00
2022-10-22T02:17:11.461Z,99633.00
2022-10-22T02:20:12.340Z,99634.00
2022-10-22T02:22:40.428Z,99635.00
2022-10-22T02:25:09.286Z,99632.00
2022-10-22T02:27:46.788Z,99637.00
2022-10-22T02:30:24.227Z,99642.00
2022-10-22T02:32:54.416Z,99634.00
2022-10-22T02:35:27.317Z,99638.00
2022-10-22T02:37:56.444Z,99637.00
2022-10-22T02:40:25.182Z,99639.00
2022-10-22T02:42:53.315Z,99643.00
2022-10-22T02:45:21.903Z,99647.00
2022-10-22T02:47:50.003Z,99641.00
2022-10-22T02:50:17.900Z,99646.00
2022-10-22T02:52:45.784Z,99644.00
2022-10-22T02:55:13.594Z,99644.00
2022-10-22T02:57:41.850Z,99650.00
2022-10-22T03:00:10.878Z,99648.00
2022-10-22T03:02:38.878Z,99654.00
2022-10-22T03:05:07.093Z,99654.00
2022-10-22T03:07:35.173Z,99663.00
2022-10-22T03:10:03.208Z,99663.00
2022-10-22T03:12:31.171Z,99665.00
2022-10-22T03:14:58.973Z,99662.00
2022-10-22T03:17:26.782Z,99669.00
2022-10-22T03:19:54.490Z,99666.00
2022-10-22T03:22:28.412Z,99669.00
2022-10-22T03:25:01.140Z,99669.00
2022-10-22T03:27:30.538Z,99670.00
2022-10-22T03:29:58.878Z,99681.00
2022-10-22T03:32:26.613Z,99683.00
2022-10-22T03:34:54.464Z,99688.00
2022-10-22T03:37:22.750Z,99688.00
2022-10-22T03:39:50.575Z,99684.00
2022-10-22T03:42:18.445Z,99688.00
2022-10-22T03:44:49.147Z,99676.00
2022-10-22T03:47:17.096Z,99677.00
2022-10-22T03:49:44.857Z,99686.00
2022-10-22T03:52:14.599Z,99678.00
2022-10-22T03:54:42.907Z,99688.00
2022-10-22T03:57:11.577Z,99700.00
2022-10-22T03:59:46.816Z,99706.00
2022-10-22T04:02:14.974Z,99706.00
2022-10-22T04:04:42.828Z,99704.00
2022-10-22T04:07:10.739Z,99701.00
2022-10-22T04:09:38.592Z,99702.00
2022-10-22T04:12:08.191Z,99703.00
2022-10-22T04:14:36.233Z,99708.00
2022-10-22T04:17:06.082Z,99717.00
2022-10-22T04:19:34.208Z,99714.00
2022-10-22T04:22:02.048Z,99735.00
2022-10-22T04:24:32.171Z,99743.00
2022-10-22T04:27:00.068Z,99739.00
2022-10-22T04:29:27.940Z,99731.00
2022-10-22T04:31:55.657Z,99733.00
2022-10-22T04:34:23.514Z,99731.00
2022-10-22T04:36:51.318Z,99737.00
2022-10-22T04:39:19.036Z,99745.00
2022-10-22T04:41:46.722Z,99749.00
2022-10-22T04:44:16.858Z,99739.00
2022-10-22T04:46:45.850Z,99748.00
2022-10-22T04:49:13.610Z,99746.00
2022-10-22T04:51:42.095Z,99740.00
2022-10-22T04:54:09.898Z,99735.00
2022-10-22T04:56:37.623Z,99724.00
2022-10-22T04:59:07.703Z,99719.00
2022-10-22T05:01:43.004Z,99730.00
2022-10-22T05:04:16.882Z,99731.00
2022-10-22T05:06:45.015Z,99723.00
2022-10-22T05:09:15.868Z,99728.00
2022-10-22T05:11:51.287Z,99726.00
2022-10-22T05:14:24.741Z,99738.00
2022-10-22T05:16:53.387Z,99731.00
2022-10-22T05:19:32.376Z,99731.00
2022-10-22T05:22:02.494Z,99732.00
2022-10-22T05:24:31.315Z,99739.00
2022-10-22T05:27:00.252Z,99733.00
2022-10-22T05:29:28.539Z,99735.00
2022-10-22T05:31:56.453Z,99732.00
2022-10-22T05:34:24.374Z,99729.00
2022-10-22T05:36:52.155Z,99742.00
2022-10-22T05:39:19.978Z,99749.00
2022-10-22T05:41:47.758Z,99745.00
2022-10-22T05:44:15.678Z,99757.00
2022-10-22T05:46:43.671Z,99753.00
2022-10-22T05:49:17.437Z,99748.00
2022-10-22T05:51:45.265Z,99755.00
2022-10-22T05:54:20.822Z,99754.00
2022-10-22T05:56:49.204Z,99760.00
2022-10-22T05:59:17.155Z,99766.00
2022-10-22T06:01:44.953Z,99769.00
2022-10-22T06:04:14.126Z,99764.00
2022-10-22T06:06:44.866Z,99766.00
2022-10-22T06:09:21.183Z,99776.00
2022-10-22T06:11:49.494Z,99772.00
2022-10-22T06:14:18.272Z,99777.00
2022-10-22T06:16:46.257Z,99774.00
2022-10-22T06:19:16.337Z,99782.00
2022-10-22T06:21:44.686Z,99781.00
2022-10-22T06:24:13.176Z,99780.00
2022-10-22T06:26:41.570Z,99791.00
2022-10-22T06:29:09.788Z,99788.00
2022-10-22T06:31:37.661Z,99785.00
2022-10-22T06:34:06.933Z,99789.00
2022-10-22T06:36:35.227Z,99789.00
2022-10-22T06:39:03.716Z,99799.00
2022-10-22T06:41:31.775Z,99794.00
2022-10-22T06:44:00.264Z,99795.00
2022-10-22T06:46:28.629Z,99801.00
2022-10-22T06:49:01.568Z,99803.00
2022-10-22T06:51:29.920Z,99806.00
2022-10-22T06:53:58.593Z,99819.00
2022-10-22T06:56:28.691Z,99818.00
2022-10-22T06:58:57.713Z,99824.00
2022-10-22T07:01:31.262Z,99825.00
2022-10-22T07:03:59.702Z,99838.00
2022-10-22T07:06:29.467Z,99843.00
2022-10-22T07:08:58.570Z,99845.00
2022-10-22T07:11:31.558Z,99846.00
2022-10-22T07:14:00.330Z,99846.00
2022-10-22T07:16:31.290Z,99853.00
2022-10-22T07:19:01.562Z,99851.00
2022-10-22T07:21:30.135Z,99860.00
2022-10-22T07:23:59.315Z,99862.00
2022-10-22T07:26:31.042Z,99864.00
2022-10-22T07:28:59.975Z,99869.00
2022-10-22T07:31:27.754Z,99868.00
2022-10-22T07:33:55.917Z,99876.00
2022-10-22T07:36:23.777Z,99869.00
2022-10-22T07:38:56.325Z,99875.00
2022-10-22T07:41:24.781Z,99871.00
2022-10-22T07:43:52.889Z,99871.00
2022-10-22T07:46:21.386Z,99872.00
2022-10-22T07:48:49.439Z,99874.00
2022-10-22T07:51:17.683Z,99879.00
2022-10-22T07:53:45.540Z,99881.00
2022-10-22T07:56:14.220Z,99881.00
2022-10-22T07:58:42.121Z,99886.00
2022-10-22T08:01:09.992Z,99887.00
2022-10-22T08:03:38.065Z,99900.00
2022-10-22T08:06:06.199Z,99904.00
2022-10-22T08:08:34.957Z,99907.00
2022-10-22T08:11:03.073Z,99903.00
2022-10-22T08:13:30.998Z,99909.00
2022-10-22T08:16:02.447Z,99915.00
2022-10-22T08:18:31.059Z,99915.00
2022-10-22T08:20:59.170Z,99921.00
2022-10-22T08:23:28.753Z,99923.00
2022-10-22T08:25:57.653Z,99924.00
2022-10-22T08:28:25.986Z,99916.00
2022-10-22T08:30:53.684Z,99923.00
2022-10-22T08:33:21.692Z,99926.00
2022-10-22T08:35:53.395Z,99927.00
2022-10-22T08:38:21.419Z,99928.00
2022-10-22T08:41:10.446Z,99926.00
2022-10-22T08:44:01.360Z,99918.00
2022-10-22T08:46:40.311Z,99930.00
2022-10-22T08:49:15.302Z,99929.00
2022-10-22T08:51:43.095Z,99934.00
2022-10-22T08:54:47.561Z,99928.00
2022-10-22T08:57:39.535Z,99925.00
2022-10-22T09:00:34.793Z,99925.00
2022-10-22T09:03:08.654Z,99924.00
2022-10-22T09:05:56.244Z,99925.00
2022-10-22T09:08:24.538Z,99927.00
2022-10-22T09:11:15.458Z,99921.00
2022-10-22T09:13:45.527Z,99920.00
2022-10-22T09:16:21.213Z,99915.00
2022-10-22T09:19:12.279Z,99922.00
2022-10-22T09:21:45.865Z,99916.00
2022-10-22T09:24:23.815Z,99918.00
2022-10-22T09:26:52.265Z,99924.00
2022-10-22T09:29:24.860Z,99933.00
2022-10-22T09:31:52.852Z,99927.00
2022-10-22T09:34:23.841Z,99927.00
2022-10-22T09:37:03.964Z,99924.00
2022-10-22T09:39:40.598Z,99933.00
2022-10-22T09:42:08.999Z,99925.00
2022-10-22T09:44:37.918Z,99924.00
2022-10-22T09:47:07.363Z,99920.00
2022-10-22T09:49:36.518Z,99919.00
2022-10-22T09:52:06.351Z,99930.00
2022-10-22T09:54:40.803Z,99925.00
2022-10-22T09:57:14.561Z,99926.00
2022-10-22T09:59:44.131Z,99932.00
2022-10-22T10:02:37.980Z,99937.00
2022-10-22T10:05:08.140Z,99936.00
2022-10-22T10:07:36.811Z,99939.00
2022-10-22T10:10:32.606Z,99935.00
2022-10-22T10:13:29.542Z,99937.00
2022-10-22T10:16:23.876Z,99954.00
2022-10-22T10:19:02.280Z,99952.00
2022-10-22T10:21:39.166Z,99949.00
2022-10-22T10:24:24.427Z,99958.00
2022-10-22T10:26:56.891Z,99946.00
2022-10-22T10:30:02.802Z,99950.00
2022-10-22T10:32:30.618Z,99946.00
2022-10-22T10:35:13.429Z,99956.00
2022-10-22T10:38:20.532Z,99958.00
2022-10-22T10:41:31.372Z,99961.00
2022-10-22T10:44:18.698Z,99959.00
2022-10-22T10:46:54.105Z,99962.00
2022-10-22T10:49:29.818Z,99969.00
2022-10-22T10:52:03.655Z,99975.00
2022-10-22T10:54:36.456Z,99975.00
2022-10-22T10:57:12.416Z,99967.00
2022-10-22T11:00:00.666Z,99967.00
2022-10-22T11:02:37.321Z,99965.00
2022-10-22T11:05:14.118Z,99968.00
2022-10-22T11:07:57.340Z,99967.00
2022-10-22T11:10:49.335Z,99983.00
2022-10-22T11:13:29.712Z,99984.00
2022-10-22T11:16:17.726Z,99980.00
2022-10-22T11:19:46.134Z,99976.00
2022-10-22T11:22:33.985Z,99980.00
2022-10-22T11:25:35.789Z,99981.00
2022-10-22T11:28:37.359Z,99983.00
2022-10-22T11:31:09.700Z,99978.00
2022-10-22T11:34:04.966Z,99987.00
2022-10-22T11:36:38.451Z,99980.00
2022-10-22T11:39:06.372Z,99984.00
2022-10-22T11:41:35.829Z,99975.00
2022-10-22T11:44:12.230Z,99967.00
2022-10-22T11:46:46.141Z,99976.00
2022-10-22T11:49:18.421Z,99973.00
2022-10-22T11:51:47.461Z,99973.00
2022-10-22T11:54:32.015Z,99984.00
2022-10-22T11:57:24.590Z,99988.00
2022-10-22T11:59:58.375Z,99987.00
2022-10-22T12:02:29.072Z,99980.00
2022-10-22T12:05:16.354Z,99981.00
2022-10-22T12:07:59.750Z,99982.00
2022-10-22T12:10:47.859Z,99982.00
2022-10-22T12:13:24.898Z,99990.00
2022-10-22T12:15:55.337Z,99991.00
2022-10-22T12:18:28.392Z,99995.00
2022-10-22T12:20:56.597Z,99990.00
2022-10-22T12:23:32.252Z,99990.00
2022-10-22T12:25:59.929Z,99995.00
2022-10-22T12:28:27.841Z,99981.00
2022-10-22T12:30:55.762Z,99979.00
2022-10-22T12:33:25.748Z,99977.00
2022-10-22T12:35:57.803Z,99981.00
2022-10-22T12:38:26.217Z,99980.00
2022-10-22T12:40:56.482Z,99979.00
2022-10-22T12:43:30.077Z,99973.00
2022-10-22T12:45:57.994Z,99977.00
2022-10-22T12:48:33.773Z,99977.00
2022-10-22T12:51:03.965Z,99979.00
2022-10-22T12:53:37.954Z,99980.00
2022-10-22T12:56:16.841Z,99975.00
2022-10-22T12:58:57.263Z,99982.00
2022-10-22T13:01:32.580Z,99980.00
2022-10-22T13:04:35.651Z,99986.00
2022-10-22T13:07:18.460Z,99989.00
2022-10-22T13:09:59.710Z,99985.00
2022-10-22T13:12:34.711Z,99975.00
2022-10-22T13:15:35.637Z,99985.00
2022-10-22T13:18:17.937Z,99976.00
2022-10-22T13:21:02.138Z,99987.00
2022-10-22T13:23:32.620Z,99987.00
2022-10-22T13:26:17.036Z,99985.00
2022-10-22T13:28:51.515Z,99994.00
2022-10-22T13:31:21.910Z,99988.00
2022-10-22T13:33:57.395Z,99990.00
2022-10-22T13:36:25.519Z,99982.00
2022-10-22T13:38:53.254Z,99991.00
2022-10-22T13:41:28.621Z,99990.00
2022-10-22T13:43:57.218Z,99992.00
2022-10-22T13:46:26.222Z,99992.00
2022-10-22T13:48:55.620Z,99996.00
2022-10-22T13:51:27.791Z,99993.00
2022-10-22T13:53:55.514Z,99991.00
2022-10-22T13:56:24.218Z,99991.00
2022-10-22T13:58:52.042Z,99992.00
2022-10-22T14:01:25.745Z,99993.00
2022-10-22T14:03:58.536Z,99997.00
2022-10-22T14:06:29.978Z,99990.00
2022-10-22T14:09:09.024Z,99984.00
2022-10-22T14:11:36.935Z,99987.00
2022-10-22T14:14:08.918Z,99987.00
2022-10-22T14:16:38.219Z,99986.00
2022-10-22T14:19:08.133Z,99998.00
2022-10-22T14:21:37.955Z,99995.00
2022-10-22T14:24:08.246Z,99993.00
2022-10-22T14:26:38.551Z,99996.00
2022-10-22T14:29:10.749Z,99993.00
2022-10-22T14:31:44.652Z,99992.00
2022-10-22T14:34:14.687Z,99987.00
2022-10-22T14:36:45.306Z,100002.00
2022-10-22T14:39:14.162Z,100003.00
2022-10-22T14:41:42.612Z,100000.00
2022-10-22T14:44:12.901Z,100002.00
2022-10-22T14:46:42.841Z,100010.00
2022-10-22T14:49:11.207Z,100007.00
2022-10-22T14:51:39.351Z,100006.00
2022-10-22T14:54:07.244Z,100015.00
2022-10-22T14:59:08.376Z,100020.00
2022-10-22T15:01:36.048Z,100015.00
2022-10-22T15:04:03.832Z,100017.00
2022-10-22T15:06:31.608Z,100029.00
2022-10-22T15:08:59.298Z,100037.00
2022-10-22T15:11:27.536Z,100045.00
2022-10-22T15:13:55.399Z,100051.00
2022-10-22T15:16:23.282Z,100053.00
2022-10-22T15:18:53.220Z,100056.00
2022-10-22T15:21:22.407Z,100061.00
2022-10-22T15:23:50.512Z,100053.00
2022-10-22T15:26:19.211Z,100048.00
2022-10-22T15:28:47.107Z,100049.00
2022-10-22T15:31:15.396Z,100048.00
2022-10-22T15:33:44.050Z,100042.00
2022-10-22T15:36:16.865Z,100054.00
2022-10-22T15:38:46.690Z,100063.00
2022-10-22T15:41:14.621Z,100066.00
2022-10-22T15:43:42.517Z,100075.00
2022-10-22T15:46:15.442Z,100073.00
2022-10-22T15:48:43.820Z,100078.00
2022-10-22T15:51:16.006Z,100086.00
2022-10-22T15:53:44.374Z,100092.00
2022-10-22T15:56:12.618Z,100092.00
2022-10-22T15:58:40.287Z,100096.00
2022-10-22T16:01:10.258Z,100099.00
2022-10-22T16:03:38.208Z,100095.00
2022-10-22T16:06:07.581Z,100097.00
2022-10-22T16:08:35.571Z,100095.00
2022-10-22T16:11:03.561Z,100103.00
2022-10-22T16:13:31.694Z,100104.00
2022-10-22T16:15:59.313Z,100117.00
2022-10-22T16:18:27.101Z,100110.00
2022-10-22T16:20:54.887Z,100115.00
2022-10-22T16:23:22.842Z,100114.00
2022-10-22T16:25:50.563Z,100119.00
2022-10-22T16:28:18.339Z,100119.00
2022-10-22T16:30:46.315Z,100121.00
2022-10-22T16:33:13.961Z,100123.00
2022-10-22T16:35:44.905Z,100127.00
2022-10-22T16:38:12.723Z,100129.00
2022-10-22T16:40:40.487Z,100123.00
2022-10-22T16:43:08.133Z,100128.00
2022-10-22T16:45:35.788Z,100128.00
2022-10-22T16:48:03.758Z,100136.00
2022-10-22T16:50:31.437Z,100142.00
2022-10-22T16:52:59.210Z,100148.00
2022-10-22T16:55:26.912Z,100148.00
2022-10-22T16:57:54.850Z,100147.00
2022-10-22T17:00:22.724Z,100161.00
2022-10-22T17:02:54.611Z,100161.00
2022-10-22T17:05:22.937Z,100155.00
2022-10-22T17:07:50.903Z,100155.00
2022-10-22T17:10:20.022Z,100159.00
2022-10-22T17:12:48.487Z,100166.00
2022-10-22T17:15:16.355Z,100171.00
2022-10-22T17:17:48.490Z,100178.00
2022-10-22T17:20:16.371Z,100181.00
2022-10-22T17:22:44.326Z,100181.00
2022-10-22T17:25:17.846Z,100183.00
2022-10-22T17:27:46.121Z,100182.00
2022-10-22T17:30:23.376Z,100188.00
2022-10-22T17:32:54.971Z,100184.00
2022-10-22T17:35:22.818Z,100184.00
2022-10-22T17:37:50.834Z,100179.00
2022-10-22T17:40:18.730Z,100186.00
2022-10-22T17:42:46.515Z,100179.00
2022-10-22T17:45:14.315Z,100197.00
2022-10-22T17:47:42.144Z,100197.00
2022-10-22T17:50:10.552Z,100198.00
2022-10-22T17:52:38.491Z,100197.00
2022-10-22T17:55:06.584Z,100191.00
2022-10-22T17:57:34.320Z,100204.00
2022-10-22T18:00:02.135Z,100198.00
2022-10-22T18:02:33.005Z,100205.00
2022-10-22T18:05:00.743Z,100198.00
2022-10-22T18:07:28.362Z,100201.00
2022-10-22T18:09:59.034Z,100203.00
2022-10-22T18:12:26.716Z,100199.00
2022-10-22T18:14:54.895Z,100204.00
2022-10-22T18:17:22.585Z,100201.00
2022-10-22T18:19:50.394Z,100211.00
2022-10-22T18:22:18.211Z,100209.00
2022-10-22T18:24:46.072Z,100208.00
2022-10-22T18:27:13.763Z,100207.00
2022-10-22T18:29:41.416Z,100204.00
2022-10-22T18:32:13.172Z,100204.00
2022-10-22T18:34:41.277Z,100217.00
2022-10-22T18:37:09.202Z,100219.00
2022-10-22T18:39:36.940Z,100224.00
2022-10-22T18:42:07.382Z,100230.00
2022-10-22T18:44:36.037Z,100234.00
2022-10-22T18:47:04.063Z,100239.00
2022-10-22T18:49:32.051Z,100224.00
2022-10-22T18:51:59.789Z,100233.00
2022-10-22T18:54:27.652Z,100240.00
2022-10-22T18:57:00.516Z,100237.00
2022-10-22T18:59:29.837Z,100237.00
2022-10-22T19:02:00.601Z,100232.00
2022-10-22T19:04:33.781Z,100235.00
2022-10-22T19:07:01.714Z,100228.00
2022-10-22T19:09:29.601Z,100234.00
2022-10-22T19:11:57.310Z,100227.00
2022-10-22T19:14:24.994Z,100227.00
2022-10-22T19:16:52.811Z,100235.00
2022-10-22T19:19:21.858Z,100237.00
2022-10-22T19:21:50.470Z,100235.00
2022-10-22T19:24:19.937Z,100238.00
2022-10-22T19:26:48.682Z,100244.00
2022-10-22T19:29:18.609Z,100248.00
2022-10-22T19:31:47.757Z,100253.00
2022-10-22T19:34:15.659Z,100252.00
2022-10-22T19:36:43.442Z,100253.00
2022-10-22T19:39:11.150Z,100258.00
2022-10-22T19:41:38.915Z,100257.00
2022-10-22T19:44:06.703Z,100259.00
2022-10-22T19:46:34.879Z,100264.00
2022-10-22T19:49:05.750Z,100261.00
2022-10-22T19:51:34.625Z,100266.00
2022-10-22T19:54:07.693Z,100271.00
2022-10-22T19:56:37.931Z,100279.00
2022-10-22T19:59:06.239Z,100272.00
2022-10-22T20:01:34.145Z,100272.00
2022-10-22T20:04:01.992Z,100274.00
2022-10-22T20:06:30.264Z,100280.00
2022-10-22T20:08:58.432Z,100281.00
2022-10-22T20:11:28.456Z,100274.00
2022-10-22T20:13:57.414Z,100272.00
2022-10-22T20:16:28.725Z,100273.00
2022-10-22T20:19:01.297Z,100280.00
2022-10-22T20:21:29.745Z,100279.00
2022-10-22T20:23:58.064Z,100283.00
2022-10-22T20:26:28.510Z,100285.00
2022-10-22T20:28:57.494Z,100286.00
2022-10-22T20:31:28.098Z,100282.00
2022-10-22T20:34:01.293Z,100291.00
2022-10-22T20:36:30.377Z,100283.00
2022-10-22T20:39:10.674Z,100288.00
2022-10-22T20:41:40.624Z,100290.00
2022-10-22T20:44:17.559Z,100284.00
2022-10-22T20:46:45.697Z,100287.00
2022-10-22T20:49:15.915Z,100288.00
2022-10-22T20:51:44.159Z,100290.00
2022-10-22T20:54:12.264Z,100285.00
2022-10-22T20:56:40.661Z,100290.00
2022-10-22T20:59:11.056Z,100290.00
2022-10-22T21:01:45.036Z,100282.00
2022-10-22T21:04:13.003Z,100288.00
2022-10-22T21:06:43.101Z,100287.00
2022-10-22T21:09:13.386Z,100284.00
2022-10-22T21:11:42.294Z,100288.00
2022-10-22T21:14:11.724Z,100290.00
2022-10-22T21:16:49.536Z,100289.00
2022-10-22T21:19:18.462Z,100288.00
2022-10-22T21:21:46.185Z,100276.00
2022-10-22T21:24:14.027Z,100283.00
2022-10-22T21:26:42.992Z,100289.00
2022-10-22T21:29:11.468Z,100286.00
2022-10-22T21:31:40.567Z,100286.00
2022-10-22T21:34:08.733Z,100289.00
2022-10-22T21:36:36.754Z,100286.00
2022-10-22T21:39:04.567Z,100288.00
2022-10-22T21:41:32.414Z,100287.00
2022-10-22T21:44:00.343Z,100293.00
2022-10-22T21:46:28.667Z,100295.00
2022-10-22T21:49:02.235Z,100291.00
2022-10-22T21:51:32.247Z,100295.00
2022-10-22T21:54:00.450Z,100296.00
2022-10-22T21:56:36.035Z,100299.00
2022-10-22T21:59:04.760Z,100305.00
2022-10-22T22:01:32.978Z,100306.00
2022-10-22T22:04:01.145Z,100302.00
2022-10-22T22:06:33.144Z,100303.00
2022-10-22T22:09:02.552Z,100308.00
2022-10-22T22:11:30.771Z,100303.00
2022-10-22T22:14:00.262Z,100302.00
2022-10-22T22:16:30.662Z,100303.00
2022-10-22T22:21:39.745Z,100291.00
2022-10-22T22:24:08.666Z,100296.00
2022-10-22T22:26:37.416Z,100296.00
2022-10-22T22:29:05.717Z,100298.00
2022-10-22T22:31:34.585Z,100297.00
2022-10-22T22:34:13.031Z,100291.00
2022-10-22T22:36:42.958Z,100303.00
2022-10-22T22:39:16.516Z,100300.00
2022-10-22T22:41:44.819Z,100294.00
2022-10-22T22:44:13.249Z,100301.00
2022-10-22T22:46:41.300Z,100305.00
2022-10-22T22:49:09.592Z,100305.00
2022-10-22T22:51:37.489Z,100300.00
2022-10-22T22:54:05.260Z,100298.00
2022-10-22T22:56:34.725Z,100295.00
2022-10-22T22:59:04.295Z,100298.00
2022-10-22T23:01:38.038Z,100298.00
2022-10-22T23:04:13.374Z,100299.00
2022-10-22T23:06:41.350Z,100294.00
2022-10-22T23:09:11.865Z,100291.00
2022-10-22T23:11:40.695Z,100288.00
2022-10-22T23:14:10.310Z,100291.00
2022-10-22T23:16:40.230Z,100288.00
2022-10-22T23:19:08.684Z,100281.00
2022-10-22T23:21:39.895Z,100290.00
2022-10-22T23:24:10.770Z,100284.00
2022-10-22T23:26:43.916Z,100286.00
2022-10-22T23:29:14.701Z,100279.00
2022-10-22T23:31:43.340Z,100279.00
2022-10-22T23:34:12.745Z,100281.00
2022-10-22T23:36:40.762Z,100262.00
2022-10-22T23:39:10.778Z,100278.00
2022-10-22T23:41:39.328Z,100276.00
2022-10-22T23:44:08.740Z,100275.00
2022-10-22T23:46:38.771Z,100276.00
2022-10-22T23:49:08.253Z,100265.00
2022-10-22T23:51:36.281Z,100267.00
2022-10-22T23:54:06.158Z,100272.00
2022-10-22T23:56:34.919Z,100270.00
2022-10-22T23:59:03.277Z,100275.00
